createdAt,value
2022-11-03T00:01:05.482Z,15.77
2022-11-03T00:04:12.052Z,16.03
2022-11-03T00:07:20.579Z,14.63
2022-11-03T00:10:23.432Z,13.98
2022-11-03T00:13:25.990Z,14.05
2022-11-03T00:16:29.222Z,14.70
2022-11-03T00:19:32.881Z,13.80
2022-11-03T00:22:37.030Z,14.38
2022-11-03T00:25:39.598Z,14.48
2022-11-03T00:28:44.900Z,14.05
2022-11-03T00:31:47.460Z,13.87
2022-11-03T00:34:50.609Z,13.97
2022-11-03T00:37:53.217Z,13.60
2022-11-03T00:41:01.364Z,14.20
2022-11-03T00:44:04.656Z,14.20
2022-11-03T00:47:07.632Z,14.20
2022-11-03T00:50:10.160Z,13.63
2022-11-03T00:53:13.014Z,14.65
2022-11-03T00:56:18.119Z,13.93
2022-11-03T00:59:21.920Z,14.70
2022-11-03T01:02:24.558Z,13.30
2022-11-03T01:05:45.984Z,14.20
2022-11-03T01:08:48.559Z,12.85
2022-11-03T01:12:13.090Z,13.25
2022-11-03T01:15:15.879Z,12.20
2022-11-03T01:18:18.791Z,12.47
2022-11-03T01:21:21.437Z,13.10
2022-11-03T01:24:24.442Z,14.05
2022-11-03T01:27:26.920Z,14.68
2022-11-03T01:30:30.051Z,13.62
2022-11-03T01:33:33.370Z,13.90
2022-11-03T01:36:36.299Z,13.53
2022-11-03T01:39:38.812Z,13.88
2022-11-03T01:42:41.743Z,13.25
2022-11-03T01:45:45.471Z,12.60
2022-11-03T01:49:11.649Z,12.73
2022-11-03T01:52:20.289Z,12.00
2022-11-03T01:55:28.746Z,12.85
2022-11-03T01:58:36.493Z,12.37
2022-11-03T02:01:39.823Z,12.40
2022-11-03T02:04:43.840Z,13.03
2022-11-03T02:11:35.281Z,12.60
2022-11-03T02:14:49.871Z,12.50
2022-11-03T02:17:55.722Z,11.57
2022-11-03T02:21:12.176Z,11.23
2022-11-03T02:24:43.307Z,11.77
2022-11-03T02:27:46.350Z,11.18
2022-11-03T02:31:24.429Z,11.12
2022-11-03T02:34:34.606Z,10.55
2022-11-03T02:37:42.533Z,11.03
2022-11-03T02:40:52.054Z,11.48
2022-11-03T02:43:57.243Z,11.10
2022-11-03T02:47:03.999Z,11.98
2022-11-03T02:50:10.719Z,10.90
2022-11-03T02:53:14.592Z,11.93
2022-11-03T02:56:24.960Z,11.30
2022-11-03T02:59:32.199Z,11.40
2022-11-03T03:03:08.176Z,12.27
2022-11-03T03:06:19.447Z,12.55
2022-11-03T03:09:29.537Z,12.03
2022-11-03T03:12:35.660Z,12.77
2022-11-03T03:15:46.562Z,14.55
2022-11-03T03:19:04.690Z,11.48
2022-11-03T03:22:35.144Z,11.50
2022-11-03T03:25:40.986Z,11.57
2022-11-03T03:28:52.594Z,11.67
2022-11-03T03:31:59.064Z,13.18
2022-11-03T03:35:03.616Z,12.57
2022-11-03T03:38:11.172Z,13.48
2022-11-03T03:41:22.274Z,12.70
2022-11-03T03:44:26.185Z,11.83
2022-11-03T03:47:31.262Z,12.75
2022-11-03T03:50:38.783Z,11.57
2022-11-03T03:53:42.537Z,12.88
2022-11-03T03:56:54.545Z,12.23
2022-11-03T03:59:57.446Z,13.13
2022-11-03T04:03:00.365Z,12.37
2022-11-03T04:06:03.889Z,13.93
2022-11-03T04:09:07.425Z,14.15
2022-11-03T04:12:29.121Z,14.37
2022-11-03T04:15:51.112Z,13.53
2022-11-03T04:19:12.747Z,13.13
2022-11-03T04:22:18.240Z,12.65
2022-11-03T04:25:21.181Z,12.43
2022-11-03T04:28:25.928Z,14.03
2022-11-03T04:31:31.952Z,15.57
2022-11-03T04:34:34.588Z,18.20
2022-11-03T04:37:38.256Z,17.58
2022-11-03T04:40:44.602Z,23.12
2022-11-03T04:43:47.808Z,18.07
2022-11-03T04:46:50.432Z,20.55
2022-11-03T04:49:53.356Z,18.30
2022-11-03T04:52:59.425Z,14.40
2022-11-03T04:56:07.222Z,14.25
2022-11-03T04:59:14.512Z,15.40
2022-11-03T05:02:20.401Z,15.13
2022-11-03T05:05:26.294Z,13.77
2022-11-03T05:08:29.716Z,12.37
2022-11-03T05:11:39.308Z,13.13
2022-11-03T05:14:42.300Z,9.60
2022-11-03T05:17:44.860Z,14.43
2022-11-03T05:20:56.835Z,13.85
2022-11-03T05:24:03.658Z,15.27
2022-11-03T05:27:16.785Z,14.77
2022-11-03T05:30:19.406Z,14.47
2022-11-03T05:33:28.628Z,15.77
2022-11-03T05:36:33.883Z,15.43
2022-11-03T05:39:40.742Z,14.07
2022-11-03T05:42:46.881Z,14.48
2022-11-03T05:45:58.146Z,15.77
2022-11-03T05:49:07.691Z,15.10
2022-11-03T05:52:23.271Z,15.30
2022-11-03T05:55:35.017Z,17.48
2022-11-03T05:58:39.763Z,18.80
2022-11-03T06:01:42.518Z,15.57
2022-11-03T06:04:45.447Z,16.70
2022-11-03T06:07:50.122Z,16.15
2022-11-03T06:10:55.725Z,16.08
2022-11-03T06:13:59.626Z,16.50
2022-11-03T06:17:08.593Z,17.00
2022-11-03T06:20:19.152Z,16.43
2022-11-03T06:23:23.120Z,15.60
2022-11-03T06:26:28.843Z,16.20
2022-11-03T06:29:33.658Z,15.35
2022-11-03T06:32:36.684Z,15.03
2022-11-03T06:35:39.945Z,14.63
2022-11-03T06:38:43.447Z,17.92
2022-11-03T06:41:47.439Z,15.43
2022-11-03T06:44:51.764Z,16.95
2022-11-03T06:47:55.373Z,17.43
2022-11-03T06:51:00.094Z,17.47
2022-11-03T06:54:09.809Z,38.30
2022-11-03T06:57:14.874Z,31.85
2022-11-03T07:00:37.022Z,31.98
2022-11-03T07:03:42.590Z,28.60
2022-11-03T07:06:52.807Z,26.33
2022-11-03T07:09:56.025Z,24.45
2022-11-03T07:13:12.306Z,23.50
2022-11-03T07:16:43.031Z,21.62
2022-11-03T07:19:46.216Z,23.60
2022-11-03T07:22:50.160Z,18.17
2022-11-03T07:26:02.906Z,17.08
2022-11-03T07:29:23.174Z,16.25
2022-11-03T07:32:33.505Z,16.55
2022-11-03T07:39:21.526Z,17.37
2022-11-03T07:42:26.413Z,15.13
2022-11-03T07:45:45.358Z,14.48
2022-11-03T07:48:50.360Z,16.65
2022-11-03T07:51:54.698Z,15.43
2022-11-03T07:54:57.422Z,14.50
2022-11-03T07:58:00.351Z,16.20
2022-11-03T08:01:16.702Z,16.17
2022-11-03T08:04:26.074Z,15.88
2022-11-03T08:07:29.087Z,15.40
2022-11-03T08:10:32.705Z,17.13
2022-11-03T08:13:35.760Z,16.37
2022-11-03T08:16:38.946Z,13.80
2022-11-03T08:19:42.115Z,15.75
2022-11-03T08:22:59.088Z,13.83
2022-11-03T08:26:07.712Z,15.97
2022-11-03T08:29:10.726Z,14.40
2022-11-03T08:32:14.246Z,13.52
2022-11-03T08:35:17.326Z,12.65
2022-11-03T08:38:19.882Z,12.27
2022-11-03T08:41:22.833Z,11.90
2022-11-03T08:44:25.456Z,10.55
2022-11-03T08:47:28.275Z,11.43
2022-11-03T08:50:30.896Z,10.85
2022-11-03T08:53:34.714Z,8.53
2022-11-03T08:56:37.241Z,9.50
2022-11-03T08:59:40.170Z,8.65
2022-11-03T09:02:43.877Z,8.70
2022-11-03T09:05:47.133Z,8.35
2022-11-03T09:12:12.709Z,8.30
2022-11-03T09:15:15.507Z,7.68
2022-11-03T09:18:18.377Z,7.45
2022-11-03T09:21:20.971Z,7.45
2022-11-03T09:24:23.776Z,6.30
2022-11-03T09:27:26.419Z,5.80
2022-11-03T09:30:29.502Z,8.88
2022-11-03T09:33:32.062Z,9.15
2022-11-03T09:36:35.116Z,8.63
2022-11-03T09:39:37.817Z,8.17
2022-11-03T09:42:41.502Z,8.93
2022-11-03T09:45:44.772Z,10.02
2022-11-03T09:48:47.930Z,9.63
2022-11-03T09:51:50.558Z,10.38
2022-11-03T09:54:58.078Z,10.10
2022-11-03T09:58:09.584Z,8.37
2022-11-03T10:01:13.545Z,11.57
2022-11-03T10:04:21.530Z,10.90
2022-11-03T10:07:27.323Z,10.98
2022-11-03T10:10:31.067Z,10.03
2022-11-03T10:13:39.144Z,9.17
2022-11-03T10:16:43.123Z,8.52
2022-11-03T10:19:49.601Z,9.35
2022-11-03T10:22:54.659Z,9.50
2022-11-03T10:26:10.210Z,8.00
2022-11-03T10:32:30.954Z,10.55
2022-11-03T10:35:36.966Z,8.45
2022-11-03T10:38:39.570Z,8.95
2022-11-03T10:41:57.587Z,8.73
2022-11-03T10:45:20.160Z,9.03
2022-11-03T10:48:25.178Z,8.68
2022-11-03T10:51:29.229Z,9.98
2022-11-03T10:54:35.702Z,9.75
2022-11-03T10:57:38.593Z,9.93
2022-11-03T11:00:42.948Z,9.20
2022-11-03T11:03:45.950Z,8.40
2022-11-03T11:06:49.620Z,9.73
2022-11-03T11:09:54.475Z,9.38
2022-11-03T11:13:15.755Z,9.30
2022-11-03T11:16:54.370Z,8.27
2022-11-03T11:20:31.031Z,9.45
2022-11-03T11:23:33.615Z,9.38
2022-11-03T11:26:37.939Z,6.60
2022-11-03T11:29:40.509Z,9.07
2022-11-03T11:32:46.163Z,9.63
2022-11-03T11:35:48.675Z,10.15
2022-11-03T11:38:55.851Z,10.43
2022-11-03T11:42:14.770Z,11.00
2022-11-03T11:45:56.260Z,10.63
2022-11-03T11:49:04.548Z,11.10
2022-11-03T11:52:15.217Z,10.30
2022-11-03T11:55:42.594Z,11.52
2022-11-03T11:58:53.033Z,12.02
2022-11-03T12:01:57.268Z,10.50
2022-11-03T12:05:04.905Z,10.53
2022-11-03T12:08:21.422Z,11.12
2022-11-03T12:11:55.344Z,11.82
2022-11-03T12:14:58.811Z,7.85
2022-11-03T12:18:40.659Z,10.97
2022-11-03T12:21:46.722Z,8.47
2022-11-03T12:24:55.785Z,10.65
2022-11-03T12:27:58.456Z,10.80
2022-11-03T12:31:02.110Z,14.60
2022-11-03T12:34:04.984Z,11.67
2022-11-03T12:37:08.572Z,11.17
2022-11-03T12:40:13.973Z,9.82
2022-11-03T12:43:17.137Z,11.88
2022-11-03T12:46:21.491Z,12.45
2022-11-03T12:49:24.546Z,12.83
2022-11-03T12:52:27.122Z,13.23
2022-11-03T12:55:30.373Z,11.07
2022-11-03T12:58:33.219Z,11.70
2022-11-03T13:01:36.307Z,10.90
2022-11-03T13:04:39.241Z,10.70
2022-11-03T13:07:43.370Z,12.23
2022-11-03T13:10:46.022Z,13.10
2022-11-03T13:13:48.991Z,10.75
2022-11-03T13:16:51.781Z,12.65
2022-11-03T13:19:54.929Z,10.43
2022-11-03T13:22:57.497Z,10.00
2022-11-03T13:26:00.591Z,11.50
2022-11-03T13:29:03.864Z,11.18
2022-11-03T13:32:08.491Z,7.15
2022-11-03T13:35:13.933Z,10.77
2022-11-03T13:38:18.538Z,9.27
2022-11-03T13:41:21.093Z,11.20
2022-11-03T13:44:26.612Z,10.93
2022-11-03T13:47:41.939Z,11.52
2022-11-03T13:50:53.323Z,11.13
2022-11-03T14:00:43.292Z,12.70
2022-11-03T14:07:08.918Z,12.20
2022-11-03T14:10:11.852Z,15.57
2022-11-03T14:13:14.372Z,14.90
2022-11-03T14:16:17.453Z,14.07
2022-11-03T14:19:20.259Z,11.05
2022-11-03T14:22:24.142Z,10.17
2022-11-03T14:25:27.116Z,11.20
2022-11-03T14:28:30.067Z,9.35
2022-11-03T14:31:33.913Z,14.05
2022-11-03T14:34:38.005Z,9.95
2022-11-03T14:37:40.791Z,15.40
2022-11-03T14:41:02.821Z,15.80
2022-11-03T14:44:07.247Z,13.55
2022-11-03T14:47:15.798Z,13.48
2022-11-03T14:50:18.294Z,11.55
2022-11-03T14:53:21.459Z,13.37
2022-11-03T14:56:24.728Z,13.23
2022-11-03T14:59:28.236Z,14.48
2022-11-03T15:02:30.795Z,14.80
2022-11-03T15:05:46.074Z,14.27
2022-11-03T15:08:53.448Z,10.60
2022-11-03T15:11:59.007Z,16.80
2022-11-03T15:15:01.610Z,13.45
2022-11-03T15:18:04.740Z,15.30
2022-11-03T15:21:07.463Z,14.57
2022-11-03T15:27:32.932Z,10.30
2022-11-03T15:30:35.842Z,14.80
2022-11-03T15:33:38.447Z,14.90
2022-11-03T15:36:41.337Z,17.42
2022-11-03T15:39:43.925Z,19.93
2022-11-03T15:42:46.874Z,18.03
2022-11-03T15:45:49.395Z,13.68
2022-11-03T15:48:54.813Z,16.27
2022-11-03T15:51:57.520Z,19.33
2022-11-03T15:55:00.430Z,16.03
2022-11-03T15:58:04.576Z,20.17
2022-11-03T16:01:07.975Z,20.50
2022-11-03T16:04:13.436Z,21.12
2022-11-03T16:07:16.018Z,18.30
2022-11-03T16:10:18.832Z,17.00
2022-11-03T16:13:21.566Z,15.27
2022-11-03T16:16:24.469Z,16.05
2022-11-03T16:19:27.094Z,17.12
2022-11-03T16:22:30.999Z,13.93
2022-11-03T16:25:34.707Z,17.67
2022-11-03T16:28:37.855Z,20.10
2022-11-03T16:31:40.685Z,10.85
2022-11-03T16:34:44.953Z,17.85
2022-11-03T16:37:49.533Z,12.75
2022-11-03T16:40:53.223Z,15.73
2022-11-03T16:43:56.205Z,35.90
2022-11-03T16:46:59.148Z,25.52
2022-11-03T16:50:01.739Z,20.70
2022-11-03T16:53:06.034Z,24.85
2022-11-03T16:56:10.251Z,22.93
2022-11-03T16:59:13.299Z,22.97
2022-11-03T17:02:18.473Z,16.98
2022-11-03T17:05:22.086Z,16.33
2022-11-03T17:08:51.294Z,18.17
2022-11-03T17:11:48.899Z,17.30
2022-11-03T17:14:55.630Z,17.20
2022-11-03T17:18:00.408Z,19.48
2022-11-03T17:21:03.054Z,18.00
2022-11-03T17:24:06.912Z,17.98
2022-11-03T17:27:15.743Z,17.37
2022-11-03T17:30:31.514Z,19.70
2022-11-03T17:33:35.315Z,15.02
2022-11-03T17:36:38.379Z,20.00
2022-11-03T17:39:41.647Z,21.55
2022-11-03T17:42:45.049Z,19.27
2022-11-03T17:45:47.709Z,20.40
2022-11-03T17:48:50.599Z,14.57
2022-11-03T17:51:55.157Z,18.95
2022-11-03T17:55:01.263Z,23.35
2022-11-03T17:58:06.433Z,20.77
2022-11-03T18:01:11.088Z,14.93
2022-11-03T18:04:18.150Z,17.77
2022-11-03T18:07:24.840Z,16.85
2022-11-03T18:10:33.605Z,13.10
2022-11-03T18:13:37.501Z,15.60
2022-11-03T18:16:41.476Z,19.00
2022-11-03T18:19:45.564Z,13.30
2022-11-03T18:22:49.379Z,16.67
2022-11-03T18:25:54.773Z,15.32
2022-11-03T18:28:58.268Z,18.27
2022-11-03T18:32:03.945Z,12.60
2022-11-03T18:35:11.625Z,20.50
2022-11-03T18:38:15.881Z,16.87
2022-11-03T18:41:38.648Z,11.63
2022-11-03T18:44:46.907Z,13.47
2022-11-03T18:47:49.931Z,20.70
2022-11-03T18:50:56.854Z,22.98
2022-11-03T18:54:00.412Z,20.12
2022-11-03T18:57:04.029Z,22.92
2022-11-03T19:00:19.521Z,17.80
2022-11-03T19:03:23.845Z,21.60
2022-11-03T19:06:27.224Z,23.08
2022-11-03T19:09:30.814Z,15.45
2022-11-03T19:12:38.796Z,19.55
2022-11-03T19:15:43.286Z,18.67
2022-11-03T19:18:47.077Z,19.40
2022-11-03T19:21:53.756Z,19.25
2022-11-03T19:24:57.182Z,12.85
2022-11-03T19:28:00.979Z,20.10
2022-11-03T19:31:04.545Z,16.23
2022-11-03T19:34:13.631Z,19.30
2022-11-03T19:37:18.146Z,19.90
2022-11-03T19:40:21.305Z,21.58
2022-11-03T19:43:24.630Z,16.48
2022-11-03T19:46:28.315Z,17.57
2022-11-03T19:49:31.636Z,17.20
2022-11-03T19:52:35.880Z,18.85
2022-11-03T19:55:42.672Z,17.52
2022-11-03T19:58:46.733Z,17.55
2022-11-03T20:01:50.730Z,12.67
2022-11-03T20:04:55.323Z,16.07
2022-11-03T20:08:04.596Z,18.50
2022-11-03T20:11:08.822Z,18.48
2022-11-03T20:14:18.397Z,18.30
2022-11-03T20:17:23.374Z,16.57
2022-11-03T20:20:31.067Z,14.10
2022-11-03T20:23:35.976Z,13.93
2022-11-03T20:26:39.135Z,18.50
2022-11-03T20:29:42.984Z,14.48
2022-11-03T20:32:48.558Z,14.67
2022-11-03T20:35:53.973Z,16.47
2022-11-03T20:38:59.805Z,18.12
2022-11-03T20:42:04.453Z,19.87
2022-11-03T20:45:16.591Z,15.18
2022-11-03T20:48:19.859Z,18.13
2022-11-03T20:51:26.459Z,20.17
2022-11-03T20:54:30.663Z,18.70
2022-11-03T20:57:33.285Z,17.10
2022-11-03T21:00:36.645Z,19.58
2022-11-03T21:07:04.302Z,17.10
2022-11-03T21:10:07.475Z,15.35
2022-11-03T21:13:17.925Z,20.35
2022-11-03T21:16:41.106Z,14.38
2022-11-03T21:19:59.433Z,17.53
2022-11-03T21:23:06.527Z,17.17
2022-11-03T21:26:12.705Z,20.17
2022-11-03T21:29:27.495Z,21.95
2022-11-03T21:32:38.229Z,23.02
2022-11-03T21:35:42.674Z,20.30
2022-11-03T21:38:45.794Z,18.70
2022-11-03T21:42:07.351Z,25.45
2022-11-03T21:45:10.808Z,17.65
2022-11-03T21:48:32.461Z,16.48
2022-11-03T21:51:35.391Z,17.50
2022-11-03T21:54:39.418Z,13.67
2022-11-03T21:57:42.248Z,16.95
2022-11-03T22:00:47.361Z,20.83
2022-11-03T22:03:51.390Z,18.17
2022-11-03T22:06:56.215Z,16.70
2022-11-03T22:09:59.126Z,18.27
2022-11-03T22:13:01.650Z,17.23
2022-11-03T22:16:23.636Z,18.77
2022-11-03T22:19:45.041Z,17.08
2022-11-03T22:23:06.765Z,17.00
2022-11-03T22:26:31.601Z,15.77
2022-11-03T22:29:53.299Z,15.80
2022-11-03T22:32:58.077Z,15.57
2022-11-03T22:36:21.900Z,17.65
2022-11-03T22:39:44.842Z,17.40
2022-11-03T22:43:06.641Z,18.63
2022-11-03T22:46:11.255Z,17.30
2022-11-03T22:49:14.180Z,12.85
2022-11-03T22:52:16.790Z,15.70
2022-11-03T22:55:19.775Z,16.57
2022-11-03T22:58:25.318Z,13.33
2022-11-03T23:01:32.167Z,14.25
2022-11-03T23:04:37.372Z,15.35
2022-11-03T23:07:41.770Z,17.10
2022-11-03T23:10:44.534Z,13.17
2022-11-03T23:13:53.313Z,13.50
2022-11-03T23:16:55.895Z,12.63
2022-11-03T23:20:17.166Z,14.30
2022-11-03T23:23:39.417Z,18.73
2022-11-03T23:26:43.036Z,21.97
2022-11-03T23:29:45.603Z,16.03
2022-11-03T23:32:48.771Z,15.35
2022-11-03T23:35:51.453Z,18.73
2022-11-03T23:38:58.515Z,13.23
2022-11-03T23:42:01.207Z,21.00
2022-11-03T23:45:22.960Z,15.33
2022-11-03T23:48:44.229Z,17.50
2022-11-03T23:51:47.166Z,12.77
2022-11-03T23:54:49.792Z,16.62
2022-11-03T23:58:11.219Z,16.97
